Time;durP1;ratioP1;P1;durP2;ratioP2;P2;SDS_P1;SDS_P2;PMS_P1;PMS_P2;Temp;Humidity;BMP_temperature;BMP_pressure;BME280_temperature;BME280_humidity;BME280_pressure;Samples;Min_cycle;Max_cycle;Signal;HPM_P1;HPM_P2
2023/08/19 00:00:26;;;;;;;0.00;0.00;;;;;;;21.42;75.13;97607.00;5049119;28;20491;-69
2023/08/19 00:02:55;;;;;;;0.03;0.03;;;;;;;21.32;75.47;97611.56;5048587;28;20115;-69
2023/08/19 00:05:23;;;;;;;0.10;0.10;;;;;;;21.39;75.20;97604.00;5051681;28;20041;-70
2023/08/19 00:07:51;;;;;;;0.10;0.10;;;;;;;21.38;75.52;97608.63;5052595;28;20053;-71
2023/08/19 00:10:19;;;;;;;0.10;0.10;;;;;;;21.27;76.23;97601.50;5050982;28;20128;-70
2023/08/19 00:12:46;;;;;;;0.00;0.00;;;;;;;21.25;75.64;97600.94;5050130;28;20052;-70
2023/08/19 00:15:14;;;;;;;0.10;0.10;;;;;;;21.03;76.81;97595.63;5050841;28;20044;-70
2023/08/19 00:17:43;;;;;;;0.05;0.05;;;;;;;21.20;76.31;97600.91;5049219;28;20068;-71
2023/08/19 00:20:12;;;;;;;0.10;0.10;;;;;;;21.04;76.28;97597.25;5048587;28;20881;-71
2023/08/19 00:22:40;;;;;;;0.10;0.10;;;;;;;21.07;76.36;97596.75;5048761;28;20037;-71
2023/08/19 00:25:09;;;;;;;0.10;0.10;;;;;;;21.01;76.29;97602.38;5047918;28;20052;-71
2023/08/19 00:27:36;;;;;;;0.10;0.10;;;;;;;21.08;76.48;97595.66;5047655;28;20091;-70
2023/08/19 00:30:05;;;;;;;0.20;0.20;;;;;;;21.05;76.32;97582.63;5048122;28;20095;-71
2023/08/19 00:32:33;;;;;;;0.10;0.10;;;;;;;21.05;76.14;97589.94;5047238;28;20087;-70
2023/08/19 00:35:02;;;;;;;0.10;0.10;;;;;;;21.05;76.13;97584.50;5048979;28;20483;-71
2023/08/19 00:37:31;;;;;;;0.05;0.05;;;;;;;21.15;75.25;97581.84;5047347;28;20135;-71
2023/08/19 00:40:00;;;;;;;0.10;0.10;;;;;;;21.17;75.47;97588.66;5048036;28;20040;-72
2023/08/19 00:42:28;;;;;;;0.00;0.00;;;;;;;21.15;75.42;97588.09;5051721;28;20043;-72
2023/08/19 00:44:56;;;;;;;0.10;0.10;;;;;;;21.17;75.45;97579.72;5051308;28;20051;-72
2023/08/19 00:47:24;;;;;;;0.00;0.00;;;;;;;21.14;75.42;97582.94;5047397;28;20041;-71
2023/08/19 00:49:52;;;;;;;0.00;0.00;;;;;;;21.15;75.10;97579.16;5047492;28;20368;-71
2023/08/19 00:52:21;;;;;;;0.10;0.10;;;;;;;21.05;75.90;97582.63;5049383;28;20382;-71
2023/08/19 00:54:49;;;;;;;0.10;0.10;;;;;;;21.00;75.84;97590.72;5050094;28;20570;-71
2023/08/19 00:57:17;;;;;;;0.10;0.10;;;;;;;21.00;75.98;97581.75;5049562;28;20700;-71
2023/08/19 00:59:45;;;;;;;0.10;0.10;;;;;;;20.98;75.92;97586.63;5050958;28;20503;-71
2023/08/19 01:02:13;;;;;;;0.00;0.00;;;;;;;20.85;76.59;97577.06;5051511;28;20045;-71
2023/08/19 01:04:40;;;;;;;0.00;0.00;;;;;;;20.89;76.47;97584.41;5048552;28;20098;-70
2023/08/19 01:07:16;;;;;;;0.00;0.00;;;;;;;20.87;76.64;97574.88;5047576;28;20068;-70
2023/08/19 01:09:56;;;;;;;0.10;0.10;;;;;;;20.79;76.75;97575.38;5050404;28;20033;-72
2023/08/19 01:12:34;;;;;;;0.20;0.20;;;;;;;20.69;76.97;97573.41;5050015;28;20422;-74
2023/08/19 01:15:06;;;;;;;0.15;0.15;;;;;;;20.73;76.75;97569.09;5051632;28;20406;-73
2023/08/19 01:17:36;;;;;;;0.10;0.10;;;;;;;20.83;76.66;97571.06;5050187;28;20076;-73
2023/08/19 01:20:08;;;;;;;0.20;0.10;;;;;;;20.87;76.53;97567.56;5049461;28;20037;-73
2023/08/19 01:22:45;;;;;;;0.10;0.10;;;;;;;20.85;76.35;97572.44;5048046;28;21647;-72
2023/08/19 01:25:14;;;;;;;0.10;0.00;;;;;;;20.87;76.52;97567.56;5049441;28;20165;-71
2023/08/19 01:27:43;;;;;;;0.08;0.05;;;;;;;20.76;76.61;97557.72;5050543;28;20072;-70
2023/08/19 01:30:12;;;;;;;0.10;0.10;;;;;;;20.65;77.58;97560.63;5050066;28;20064;-71
2023/08/19 01:32:42;;;;;;;0.10;0.10;;;;;;;20.60;77.69;97572.25;5048250;28;20049;-71
2023/08/19 01:35:10;;;;;;;0.10;0.10;;;;;;;20.56;77.75;97571.13;5049687;28;20144;-70
2023/08/19 01:37:41;;;;;;;0.05;0.05;;;;;;;20.51;77.62;97571.09;5051855;28;20453;-71
2023/08/19 01:40:11;;;;;;;0.10;0.10;;;;;;;20.26;78.45;97565.41;5047473;28;20103;-71
2023/08/19 01:42:41;;;;;;;0.10;0.10;;;;;;;20.24;79.03;97560.25;5049674;28;20044;-71
2023/08/19 01:45:09;;;;;;;0.10;0.10;;;;;;;20.29;78.76;97557.56;5048688;28;20152;-71
2023/08/19 01:47:37;;;;;;;0.10;0.10;;;;;;;20.38;77.97;97552.53;5047655;28;20060;-72
2023/08/19 01:50:06;;;;;;;0.10;0.10;;;;;;;20.40;77.84;97562.03;5050141;28;20115;-71
2023/08/19 01:52:34;;;;;;;0.10;0.10;;;;;;;20.47;77.93;97567.25;5046429;28;20055;-71
2023/08/19 01:55:02;;;;;;;0.10;0.10;;;;;;;20.33;78.15;97569.56;5049570;28;20486;-71
2023/08/19 01:57:30;;;;;;;0.10;0.10;;;;;;;20.29;78.50;97570.31;5051320;28;20037;-70
2023/08/19 01:59:59;;;;;;;0.10;0.10;;;;;;;20.41;78.01;97571.81;5049440;28;20052;-71
2023/08/19 02:02:27;;;;;;;0.10;0.10;;;;;;;20.43;77.75;97568.84;5047276;28;20053;-71
2023/08/19 02:04:55;;;;;;;0.15;0.15;;;;;;;20.38;77.65;97568.78;5050619;28;20067;-71
2023/08/19 02:07:22;;;;;;;0.10;0.10;;;;;;;20.38;77.67;97566.91;5048773;28;20045;-71
2023/08/19 02:09:50;;;;;;;0.10;0.10;;;;;;;20.28;77.52;97571.38;5049613;28;20044;-70
2023/08/19 02:12:18;;;;;;;0.10;0.10;;;;;;;20.11;78.61;97558.78;5045446;28;20048;-70
2023/08/19 02:14:46;;;;;;;0.00;0.00;;;;;;;20.01;79.10;97563.28;5049091;28;20069;-70
2023/08/19 02:17:15;;;;;;;0.10;0.10;;;;;;;20.05;78.93;97562.50;5048698;28;20118;-71
2023/08/19 02:19:43;;;;;;;0.03;0.03;;;;;;;20.20;78.31;97569.97;5050006;28;20132;-71
2023/08/19 02:22:10;;;;;;;0.00;0.00;;;;;;;20.18;77.79;97563.97;5044587;28;20080;-70
2023/08/19 02:24:38;;;;;;;0.10;0.10;;;;;;;20.15;78.10;97569.91;5051264;28;20110;-71
2023/08/19 02:27:06;;;;;;;0.10;0.10;;;;;;;20.08;78.35;97567.41;5049703;28;20131;-71
2023/08/19 02:29:34;;;;;;;0.00;0.00;;;;;;;20.09;78.42;97571.75;5049286;28;20045;-71
2023/08/19 02:32:02;;;;;;;0.10;0.10;;;;;;;20.11;78.56;97572.31;5049254;28;20120;-71
2023/08/19 02:34:31;;;;;;;0.10;0.10;;;;;;;20.05;78.79;97576.03;5049902;28;20045;-70
2023/08/19 02:36:58;;;;;;;0.10;0.10;;;;;;;20.05;78.68;97592.31;5048081;28;20044;-71
2023/08/19 02:39:26;;;;;;;0.10;0.10;;;;;;;20.08;78.62;97585.56;5050378;28;20037;-71
2023/08/19 02:41:54;;;;;;;0.10;0.10;;;;;;;19.96;78.52;97583.00;5047546;28;20102;-71
2023/08/19 02:44:22;;;;;;;0.05;0.05;;;;;;;20.01;78.67;97584.97;5048586;28;20049;-71
2023/08/19 02:46:51;;;;;;;0.40;0.40;;;;;;;19.94;78.79;97577.00;5050678;28;20512;-71
2023/08/19 02:49:18;;;;;;;0.10;0.10;;;;;;;19.98;78.54;97572.72;5049208;28;20554;-71
2023/08/19 02:51:47;;;;;;;0.10;0.10;;;;;;;19.98;78.38;97571.91;5047305;28;20037;-71
2023/08/19 02:54:15;;;;;;;0.10;0.10;;;;;;;19.99;78.46;97573.53;5048006;28;20055;-71
2023/08/19 02:56:43;;;;;;;0.10;0.10;;;;;;;19.98;78.79;97569.19;5050481;28;20040;-71
2023/08/19 02:59:11;;;;;;;0.10;0.10;;;;;;;20.00;78.92;97569.78;5048852;28;20045;-71
2023/08/19 03:01:39;;;;;;;0.10;0.10;;;;;;;19.78;79.52;97573.31;5049058;28;20494;-71
2023/08/19 03:04:07;;;;;;;0.10;0.10;;;;;;;19.72;80.10;97562.69;5048576;28;20113;-71
2023/08/19 03:06:35;;;;;;;0.10;0.10;;;;;;;19.61;80.42;97575.31;5046745;28;20052;-71
2023/08/19 03:09:04;;;;;;;0.10;0.10;;;;;;;19.59;80.02;97582.84;5047061;28;20076;-71
2023/08/19 03:11:32;;;;;;;0.10;0.10;;;;;;;19.54;80.16;97588.19;5044301;28;20498;-71
2023/08/19 03:14:00;;;;;;;0.10;0.10;;;;;;;19.52;80.49;97579.50;5047529;28;20075;-69
2023/08/19 03:16:28;;;;;;;0.20;0.15;;;;;;;19.58;80.29;97577.69;5048479;28;20033;-69
2023/08/19 03:18:56;;;;;;;0.15;0.15;;;;;;;19.50;80.82;97580.84;5047631;28;20048;-69
2023/08/19 03:21:23;;;;;;;0.15;0.10;;;;;;;19.49;80.92;97587.31;5044126;28;20047;-69
2023/08/19 03:23:51;;;;;;;0.10;0.10;;;;;;;19.43;81.36;97592.63;5048773;28;20072;-69
2023/08/19 03:26:20;;;;;;;0.10;0.10;;;;;;;19.41;81.15;97596.69;5049680;28;20045;-69
2023/08/19 03:28:49;;;;;;;0.10;0.10;;;;;;;19.38;81.59;97594.47;5047549;28;20044;-70
2023/08/19 03:31:17;;;;;;;0.10;0.10;;;;;;;19.36;81.46;97592.00;5045579;28;20513;-70
2023/08/19 03:33:45;;;;;;;0.00;0.00;;;;;;;19.37;81.33;97593.66;5047725;28;20602;-70
2023/08/19 03:36:13;;;;;;;0.10;0.10;;;;;;;19.41;81.19;97594.75;5049009;28;20102;-70
2023/08/19 03:38:40;;;;;;;0.10;0.10;;;;;;;19.40;81.30;97598.56;5047111;28;20567;-71
2023/08/19 03:41:09;;;;;;;0.35;0.35;;;;;;;19.35;81.15;97595.78;5049098;28;20138;-70
2023/08/19 03:43:38;;;;;;;0.10;0.10;;;;;;;19.32;81.45;97593.56;5047595;28;20073;-71
2023/08/19 03:46:06;;;;;;;0.03;0.03;;;;;;;19.33;81.39;97597.91;5048931;28;20037;-71
2023/08/19 03:48:34;;;;;;;0.10;0.10;;;;;;;19.37;81.20;97599.06;5047167;28;20037;-70
2023/08/19 03:51:01;;;;;;;0.13;0.13;;;;;;;19.21;82.20;97591.78;5045496;28;20524;-69
2023/08/19 03:53:29;;;;;;;0.10;0.10;;;;;;;19.12;82.75;97593.28;5048273;28;20048;-70
2023/08/19 03:55:57;;;;;;;0.10;0.10;;;;;;;19.18;82.40;97605.03;5045051;28;20041;-70
2023/08/19 03:58:24;;;;;;;0.20;0.20;;;;;;;19.29;81.91;97602.22;5048957;28;20037;-70
2023/08/19 04:00:53;;;;;;;0.10;0.10;;;;;;;19.25;82.12;97606.47;5048849;28;20115;-70
2023/08/19 04:03:29;;;;;;;0.30;0.30;;;;;;;19.25;82.10;97611.88;5046278;28;20441;-70
2023/08/19 04:05:57;;;;;;;0.10;0.10;;;;;;;19.18;82.53;97615.84;5049932;28;20098;-69
2023/08/19 04:08:25;;;;;;;0.10;0.10;;;;;;;18.92;83.43;97620.88;5051614;28;20045;-70
2023/08/19 04:10:53;;;;;;;0.03;0.03;;;;;;;18.90;83.67;97616.75;5049960;28;20055;-70
2023/08/19 04:13:21;;;;;;;0.10;0.10;;;;;;;19.01;82.92;97613.97;5048059;28;20057;-70
2023/08/19 04:15:49;;;;;;;0.10;0.10;;;;;;;19.05;82.26;97609.72;5047845;28;20047;-70
2023/08/19 04:18:18;;;;;;;0.10;0.10;;;;;;;19.18;81.44;97611.25;5048371;28;20048;-69
2023/08/19 04:20:46;;;;;;;0.10;0.10;;;;;;;19.09;81.10;97614.63;5046589;28;20048;-70
2023/08/19 04:23:14;;;;;;;0.03;0.03;;;;;;;18.92;81.45;97607.34;5066531;28;20049;-69
2023/08/19 04:25:41;;;;;;;0.10;0.10;;;;;;;18.83;81.64;97618.81;5052613;28;20425;-70
2023/08/19 04:28:10;;;;;;;0.10;0.10;;;;;;;18.85;81.98;97601.28;5051394;28;20044;-70
2023/08/19 04:30:38;;;;;;;0.08;0.08;;;;;;;18.88;81.67;97614.31;5050886;28;20056;-70
2023/08/19 04:33:07;;;;;;;0.50;0.50;;;;;;;18.93;81.48;97621.69;5050117;28;20642;-70
2023/08/19 04:35:36;;;;;;;0.10;0.10;;;;;;;19.02;81.44;97617.50;5051941;28;20116;-71
2023/08/19 04:38:04;;;;;;;0.00;0.00;;;;;;;19.11;81.38;97620.59;5050642;28;20033;-70
2023/08/19 04:40:33;;;;;;;0.20;0.20;;;;;;;19.01;81.03;97618.56;5050561;28;20410;-70
2023/08/19 04:43:01;;;;;;;0.10;0.10;;;;;;;19.09;81.07;97622.75;5051684;28;20041;-70
2023/08/19 04:45:29;;;;;;;0.10;0.10;;;;;;;19.22;80.79;97630.50;5050498;28;20033;-71
2023/08/19 04:47:56;;;;;;;0.10;0.10;;;;;;;19.17;80.93;97633.97;5051270;28;20055;-70
2023/08/19 04:50:25;;;;;;;0.13;0.13;;;;;;;19.09;81.14;97631.69;5046442;28;20124;-70
2023/08/19 04:52:54;;;;;;;0.03;0.03;;;;;;;19.06;81.62;97632.19;5046777;28;20045;-71
2023/08/19 04:55:22;;;;;;;0.10;0.10;;;;;;;19.08;81.76;97635.47;5050128;28;20072;-70
2023/08/19 04:57:50;;;;;;;0.10;0.10;;;;;;;19.08;81.99;97640.88;5051968;28;20138;-70
2023/08/19 05:00:18;;;;;;;0.10;0.10;;;;;;;19.13;81.50;97635.53;5049647;28;20049;-69
2023/08/19 05:02:46;;;;;;;0.10;0.10;;;;;;;19.18;81.54;97642.91;5050612;28;20577;-69
2023/08/19 05:05:14;;;;;;;0.00;0.00;;;;;;;19.28;80.62;97638.47;5049772;28;20473;-69
2023/08/19 05:07:42;;;;;;;0.10;0.10;;;;;;;19.40;79.80;97631.06;5051691;28;20509;-69
2023/08/19 05:10:11;;;;;;;0.10;0.10;;;;;;;19.41;79.82;97634.59;5053329;28;20041;-69
2023/08/19 05:12:39;;;;;;;0.25;0.25;;;;;;;19.36;80.08;97639.91;5046373;28;20491;-69
2023/08/19 05:15:07;;;;;;;0.10;0.10;;;;;;;19.35;79.94;97639.09;5051837;28;20049;-69
2023/08/19 05:17:35;;;;;;;0.10;0.10;;;;;;;19.45;79.77;97638.41;5049370;28;20044;-68
2023/08/19 05:20:04;;;;;;;0.10;0.10;;;;;;;19.56;79.03;97633.97;5051744;28;20052;-69
2023/08/19 05:22:32;;;;;;;0.00;0.00;;;;;;;19.51;79.40;97636.63;5048061;28;20056;-69
2023/08/19 05:24:59;;;;;;;0.13;0.13;;;;;;;19.48;79.34;97634.38;5050489;28;20071;-69
2023/08/19 05:27:29;;;;;;;0.10;0.10;;;;;;;19.59;78.89;97641.63;5050066;28;20068;-69
2023/08/19 05:29:57;;;;;;;0.10;0.10;;;;;;;19.66;79.16;97636.81;5047911;28;20116;-70
2023/08/19 05:32:25;;;;;;;0.03;0.03;;;;;;;19.65;79.34;97643.31;5049848;28;20132;-69
2023/08/19 05:34:52;;;;;;;0.00;0.00;;;;;;;19.69;78.99;97647.16;5051685;28;20053;-70
2023/08/19 05:37:20;;;;;;;0.08;0.08;;;;;;;19.77;78.94;97655.66;5050579;28;20053;-70
2023/08/19 05:39:49;;;;;;;0.00;0.00;;;;;;;19.73;79.25;97659.94;5051796;28;20084;-69
2023/08/19 05:42:18;;;;;;;0.10;0.10;;;;;;;19.79;78.82;97656.25;5049962;28;20103;-70
2023/08/19 05:44:47;;;;;;;0.00;0.00;;;;;;;19.83;79.20;97664.66;5051033;28;20048;-70
2023/08/19 05:47:15;;;;;;;0.10;0.10;;;;;;;19.87;79.13;97660.38;5050481;28;20044;-70
2023/08/19 05:49:43;;;;;;;0.10;0.10;;;;;;;19.76;79.35;97666.75;5051828;28;20080;-71
2023/08/19 05:52:10;;;;;;;0.15;0.15;;;;;;;19.76;79.84;97677.59;5048197;28;20041;-71
2023/08/19 05:54:38;;;;;;;0.10;0.10;;;;;;;19.72;79.85;97676.47;5051411;28;20059;-71
2023/08/19 05:57:06;;;;;;;0.10;0.10;;;;;;;19.70;80.15;97682.13;5048269;28;20528;-73
2023/08/19 05:59:34;;;;;;;0.10;0.10;;;;;;;19.76;80.06;97686.53;5050972;28;20059;-72
2023/08/19 06:02:03;;;;;;;0.10;0.10;;;;;;;19.82;79.39;97686.59;5049214;28;20049;-70
2023/08/19 06:04:30;;;;;;;0.00;0.00;;;;;;;19.78;79.66;97691.69;5051263;28;20043;-70
2023/08/19 06:06:58;;;;;;;0.03;0.03;;;;;;;19.85;79.46;97694.22;5050718;28;20044;-70
2023/08/19 06:09:26;;;;;;;0.10;0.10;;;;;;;20.00;79.22;97699.84;5049290;28;20037;-70
2023/08/19 06:11:54;;;;;;;0.10;0.10;;;;;;;20.14;78.73;97696.47;5049568;28;20054;-70
2023/08/19 06:14:22;;;;;;;0.10;0.10;;;;;;;20.23;78.42;97704.19;5050605;28;20049;-70
2023/08/19 06:16:49;;;;;;;0.00;0.00;;;;;;;20.27;78.19;97702.59;5050196;28;20128;-70
2023/08/19 06:19:18;;;;;;;0.10;0.10;;;;;;;20.29;77.94;97709.41;5049622;28;20119;-70
2023/08/19 06:21:46;;;;;;;0.10;0.10;;;;;;;20.27;78.35;97705.31;5047028;28;20037;-70
2023/08/19 06:24:14;;;;;;;0.10;0.10;;;;;;;20.32;78.34;97708.09;5050593;28;20045;-70
2023/08/19 06:26:41;;;;;;;0.00;0.00;;;;;;;20.31;77.59;97712.69;5049509;28;20048;-70
2023/08/19 06:29:10;;;;;;;0.10;0.10;;;;;;;20.34;78.08;97714.06;5049797;28;20119;-70
2023/08/19 06:31:38;;;;;;;0.10;0.10;;;;;;;20.40;77.80;97716.63;5046330;28;20068;-71
2023/08/19 06:34:07;;;;;;;0.00;0.00;;;;;;;20.48;77.91;97724.28;5050098;28;20040;-70
2023/08/19 06:36:38;;;;;;;0.10;0.10;;;;;;;20.52;77.38;97720.00;5048416;28;20458;-70
2023/08/19 06:39:08;;;;;;;0.30;0.30;;;;;;;20.62;77.42;97726.59;5049520;28;20413;-70
2023/08/19 06:41:40;;;;;;;0.10;0.10;;;;;;;20.68;77.56;97729.09;5050951;28;20472;-70
2023/08/19 06:44:08;;;;;;;0.10;0.10;;;;;;;20.80;77.59;97718.09;5049587;28;20041;-70
2023/08/19 06:46:36;;;;;;;0.08;0.08;;;;;;;20.92;76.52;97721.47;5046566;28;20045;-70
2023/08/19 06:49:05;;;;;;;0.13;0.13;;;;;;;20.99;76.22;97718.53;5047782;28;20154;-70
2023/08/19 06:51:33;;;;;;;0.10;0.10;;;;;;;21.05;76.14;97723.78;5050436;28;20040;-69
2023/08/19 06:54:02;;;;;;;0.10;0.10;;;;;;;21.22;75.47;97721.75;5048149;28;20041;-70
2023/08/19 06:56:34;;;;;;;0.10;0.10;;;;;;;21.41;75.31;97713.19;5046427;28;20047;-69
2023/08/19 06:59:04;;;;;;;0.10;0.10;;;;;;;21.56;74.57;97724.19;5049937;28;20115;-69
2023/08/19 07:01:32;;;;;;;0.10;0.10;;;;;;;21.68;74.44;97726.72;5049319;28;20562;-71
2023/08/19 07:04:01;;;;;;;0.10;0.10;;;;;;;21.83;74.79;97721.34;5045453;28;20040;-68
2023/08/19 07:06:31;;;;;;;0.08;0.08;;;;;;;21.97;74.36;97728.78;5048664;28;20040;-69
2023/08/19 07:09:00;;;;;;;0.10;0.10;;;;;;;22.08;73.65;97726.94;5048103;28;20053;-69
2023/08/19 07:11:29;;;;;;;0.10;0.10;;;;;;;22.24;73.47;97723.19;5049565;28;20064;-69
2023/08/19 07:13:58;;;;;;;0.10;0.10;;;;;;;22.51;72.53;97725.75;5045654;28;20123;-69
2023/08/19 07:16:27;;;;;;;0.10;0.10;;;;;;;22.65;72.40;97728.75;5049124;28;20059;-68
2023/08/19 07:18:55;;;;;;;0.10;0.10;;;;;;;22.82;71.33;97729.38;5048815;28;20060;-68
2023/08/19 07:21:24;;;;;;;0.10;0.10;;;;;;;22.92;70.71;97718.50;5045464;28;20045;-68
2023/08/19 07:23:55;;;;;;;0.05;0.05;;;;;;;23.20;69.88;97724.50;5046391;28;20033;-68
2023/08/19 07:26:26;;;;;;;0.00;0.00;;;;;;;23.41;69.37;97724.22;5048879;28;20049;-69
2023/08/19 07:28:55;;;;;;;0.00;0.00;;;;;;;23.62;68.42;97714.16;5047552;28;20043;-69
2023/08/19 07:31:23;;;;;;;0.10;0.10;;;;;;;23.77;68.17;97714.09;5049325;28;20075;-71
2023/08/19 07:33:51;;;;;;;0.05;0.05;;;;;;;23.93;67.04;97708.63;5050367;28;20037;-68
2023/08/19 07:36:19;;;;;;;0.00;0.00;;;;;;;24.06;66.51;97711.59;5051420;28;20144;-68
2023/08/19 07:38:47;;;;;;;0.00;0.00;;;;;;;24.23;65.71;97711.25;5050391;28;20041;-69
2023/08/19 07:41:15;;;;;;;0.10;0.10;;;;;;;24.39;65.14;97710.13;5048853;28;20045;-69
2023/08/19 07:43:43;;;;;;;0.10;0.10;;;;;;;24.50;64.58;97706.19;5044534;28;20037;-69
2023/08/19 07:46:15;;;;;;;0.08;0.08;;;;;;;24.61;64.39;97704.22;5045583;28;20494;-68
2023/08/19 07:48:43;;;;;;;;;;;;;;;24.76;63.82;97706.06;5048408;28;20107;-68
2023/08/19 07:51:11;;;;;;;0.10;0.10;;;;;;;24.89;63.63;97699.97;5051986;28;19936;-68
2023/08/19 07:53:39;;;;;;;0.08;0.08;;;;;;;24.94;63.27;97699.94;5054850;28;20087;-71
2023/08/19 07:56:07;;;;;;;0.00;0.00;;;;;;;25.09;62.76;97699.03;5052930;28;20374;-69
2023/08/19 07:58:36;;;;;;;0.00;0.00;;;;;;;25.17;62.50;97695.69;5052423;28;20037;-69
2023/08/19 08:01:05;;;;;;;0.00;0.00;;;;;;;25.28;61.46;97686.28;5053057;28;20580;-70
2023/08/19 08:03:34;;;;;;;0.00;0.00;;;;;;;25.46;60.89;97693.78;5052863;28;20041;-69
2023/08/19 08:06:02;;;;;;;0.00;0.00;;;;;;;25.59;61.28;97698.56;5052687;28;20041;-69
2023/08/19 08:08:29;;;;;;;0.10;0.10;;;;;;;25.72;60.05;97693.56;5053974;28;20040;-69
2023/08/19 08:10:57;;;;;;;0.00;0.00;;;;;;;25.81;60.27;97692.63;5052058;28;20037;-69
2023/08/19 08:13:26;;;;;;;0.00;0.00;;;;;;;25.92;59.24;97699.63;5052952;28;20045;-70
2023/08/19 08:15:54;;;;;;;0.20;0.20;;;;;;;25.95;59.31;97695.50;5052842;28;20475;-69
2023/08/19 08:18:21;;;;;;;0.00;0.00;;;;;;;26.12;59.40;97697.75;5051761;28;20084;-69
2023/08/19 08:20:51;;;;;;;0.00;0.00;;;;;;;26.22;58.63;97695.69;5050658;28;20531;-69
2023/08/19 08:23:18;;;;;;;0.00;0.00;;;;;;;26.37;58.18;97696.66;5052362;28;20064;-69
2023/08/19 08:25:46;;;;;;;0.00;0.00;;;;;;;26.45;58.48;97699.53;5049238;28;20051;-69
2023/08/19 08:28:14;;;;;;;0.00;0.00;;;;;;;26.48;57.76;97696.19;5051789;28;20059;-69
2023/08/19 08:30:42;;;;;;;0.00;0.00;;;;;;;26.55;57.65;97704.88;5051257;28;20506;-69
2023/08/19 08:33:09;;;;;;;0.00;0.00;;;;;;;26.58;57.61;97700.72;5051873;28;20041;-69
2023/08/19 08:35:37;;;;;;;0.00;0.00;;;;;;;26.61;57.09;97703.69;5052486;28;20057;-72
2023/08/19 08:38:06;;;;;;;0.00;0.00;;;;;;;26.61;57.65;97700.13;5053456;28;20069;-69
2023/08/19 08:40:33;;;;;;;0.08;0.08;;;;;;;26.66;57.19;97706.38;5051273;28;20041;-70
2023/08/19 08:43:03;;;;;;;0.00;0.00;;;;;;;26.67;57.18;97701.72;5051807;28;20134;-69
2023/08/19 08:45:32;;;;;;;0.00;0.00;;;;;;;26.69;56.91;97703.00;5050725;28;20051;-70
2023/08/19 08:48:00;;;;;;;0.20;0.20;;;;;;;26.81;57.71;97704.50;5052761;28;20477;-69
2023/08/19 08:50:28;;;;;;;0.00;0.00;;;;;;;26.82;57.22;97706.13;5052747;28;20039;-70
2023/08/19 08:52:56;;;;;;;0.00;0.00;;;;;;;26.90;57.17;97706.28;5050228;28;20045;-70
2023/08/19 08:55:25;;;;;;;0.00;0.00;;;;;;;27.04;56.90;97707.19;5049076;28;20384;-70
2023/08/19 08:57:53;;;;;;;0.00;0.00;;;;;;;27.16;56.77;97708.66;5052022;28;20051;-70
2023/08/19 09:00:21;;;;;;;0.00;0.00;;;;;;;27.12;56.45;97702.94;5050902;28;20041;-70
2023/08/19 09:02:49;;;;;;;0.00;0.00;;;;;;;27.28;56.31;97703.53;5049710;28;20124;-70
2023/08/19 09:05:19;;;;;;;0.00;0.00;;;;;;;27.41;55.77;97703.53;5050846;28;20051;-69
2023/08/19 09:07:49;;;;;;;0.00;0.00;;;;;;;27.52;54.96;97703.38;5049905;28;20049;-69
2023/08/19 09:10:17;;;;;;;0.05;0.05;;;;;;;27.75;54.41;97711.47;5047799;28;20067;-70
2023/08/19 09:12:48;;;;;;;0.00;0.00;;;;;;;27.84;54.36;97697.88;5050367;28;20051;-70
2023/08/19 09:15:18;;;;;;;0.00;0.00;;;;;;;27.92;54.04;97707.34;5050773;28;20064;-70
2023/08/19 09:17:46;;;;;;;0.00;0.00;;;;;;;27.92;53.90;97707.34;5050975;28;20133;-69
2023/08/19 09:20:18;;;;;;;0.00;0.00;;;;;;;27.96;54.10;97711.91;5046929;28;20099;-70
2023/08/19 09:22:46;;;;;;;0.00;0.00;;;;;;;28.02;53.69;97707.16;5043568;28;20188;-70
2023/08/19 09:25:15;;;;;;;0.00;0.00;;;;;;;28.14;53.39;97708.25;5046777;28;20131;-70
2023/08/19 09:27:44;;;;;;;0.00;0.00;;;;;;;28.28;52.60;97708.28;5049628;28;20086;-69
2023/08/19 09:30:16;;;;;;;0.00;0.00;;;;;;;28.45;50.26;97707.63;5051315;28;20131;-69
2023/08/19 09:32:45;;;;;;;0.00;0.00;;;;;;;28.63;48.18;97708.63;5048995;28;20462;-70
2023/08/19 09:35:14;;;;;;;0.10;0.10;;;;;;;28.74;47.28;97697.13;5051439;28;20068;-71
2023/08/19 09:37:43;;;;;;;0.00;0.00;;;;;;;28.94;46.18;97706.03;5051722;28;20577;-71
2023/08/19 09:40:15;;;;;;;0.00;0.00;;;;;;;29.34;45.94;97705.03;5048313;28;20120;-71
2023/08/19 09:42:47;;;;;;;0.00;0.00;;;;;;;29.60;44.50;97707.16;5047738;28;20131;-71
2023/08/19 09:45:19;;;;;;;0.00;0.00;;;;;;;29.88;43.36;97700.38;5050640;28;20048;-69
2023/08/19 09:47:48;;;;;;;0.00;0.00;;;;;;;29.99;42.27;97706.44;5051539;28;20037;-68
2023/08/19 09:50:16;;;;;;;0.00;0.00;;;;;;;30.15;42.56;97699.34;5049476;28;20064;-69
2023/08/19 09:52:53;;;;;;;0.00;0.00;;;;;;;30.27;42.71;97703.13;5049165;28;20047;-69
2023/08/19 09:55:22;;;;;;;0.00;0.00;;;;;;;30.21;42.44;97703.59;5050924;28;20033;-69
2023/08/19 09:57:50;;;;;;;0.00;0.00;;;;;;;30.45;41.54;97703.16;5051199;28;20037;-69
2023/08/19 10:00:20;;;;;;;0.00;0.00;;;;;;;30.68;41.46;97714.91;5049859;28;20106;-69
2023/08/19 10:02:48;;;;;;;0.00;0.00;;;;;;;30.69;40.07;97708.25;5048246;28;20044;-69
2023/08/19 10:05:16;;;;;;;0.00;0.00;;;;;;;30.83;39.55;97700.66;5050861;28;20095;-69
2023/08/19 10:07:46;;;;;;;0.10;0.10;;;;;;;30.94;40.14;97710.25;5050438;28;20415;-69
2023/08/19 10:10:14;;;;;;;0.10;0.10;;;;;;;30.91;37.73;97699.84;5050567;28;20437;-69
2023/08/19 10:12:43;;;;;;;0.10;0.10;;;;;;;30.95;38.56;97700.81;5047768;28;20442;-71
2023/08/19 10:15:13;;;;;;;0.00;0.00;;;;;;;30.93;38.32;97712.19;5048880;28;20064;-69
2023/08/19 10:17:45;;;;;;;0.00;0.00;;;;;;;31.18;38.83;97704.25;5048459;28;20037;-69
2023/08/19 10:20:14;;;;;;;0.00;0.00;;;;;;;31.18;37.93;97709.75;5050890;28;20190;-69
2023/08/19 10:22:45;;;;;;;0.00;0.00;;;;;;;31.35;37.26;97704.25;5048957;28;20166;-69
2023/08/19 10:25:14;;;;;;;0.00;0.00;;;;;;;31.39;37.62;97705.19;5050880;28;20041;-69
2023/08/19 10:27:43;;;;;;;0.00;0.00;;;;;;;31.48;38.03;97700.47;5050169;28;20028;-69
2023/08/19 10:30:35;;;;;;;0.00;0.00;;;;;;;31.42;34.51;97706.50;5049776;28;20564;-69
2023/08/19 10:33:06;;;;;;;0.00;0.00;;;;;;;31.36;35.31;97712.16;5031069;28;20144;-69
2023/08/19 10:35:58;;;;;;;0.00;0.00;;;;;;;31.55;36.25;97708.25;5050454;28;20086;-69
2023/08/19 10:38:26;;;;;;;0.00;0.00;;;;;;;31.93;36.74;97705.56;5048724;28;20057;-69
2023/08/19 10:41:01;;;;;;;0.00;0.00;;;;;;;31.94;36.05;97702.47;5048790;28;20047;-69
2023/08/19 10:43:47;;;;;;;0.00;0.00;;;;;;;32.12;36.47;97700.44;5050025;28;20045;-71
2023/08/19 10:46:17;;;;;;;0.00;0.00;;;;;;;32.21;35.34;97697.66;5050119;28;20155;-69
2023/08/19 10:48:49;;;;;;;0.00;0.00;;;;;;;32.39;34.91;97696.44;5047609;28;20139;-69
2023/08/19 10:51:18;;;;;;;0.00;0.00;;;;;;;32.29;35.75;97696.84;5049441;28;20067;-69
2023/08/19 10:53:49;;;;;;;0.00;0.00;;;;;;;32.52;34.90;97702.84;5049224;28;20047;-69
2023/08/19 10:56:20;;;;;;;0.00;0.00;;;;;;;32.65;35.08;97701.81;5050296;28;20398;-69
2023/08/19 10:58:47;;;;;;;0.00;0.00;;;;;;;32.57;34.99;97708.22;5048957;28;20111;-70
2023/08/19 11:01:15;;;;;;;0.00;0.00;;;;;;;32.28;35.46;97695.22;5046986;28;20041;-70
2023/08/19 11:03:43;;;;;;;0.00;0.00;;;;;;;32.12;36.09;97694.91;5051151;28;20068;-70
2023/08/19 11:06:12;;;;;;;0.08;0.08;;;;;;;32.46;35.10;97691.19;5049816;28;20044;-69
2023/08/19 11:08:43;;;;;;;0.00;0.00;;;;;;;32.58;34.72;97690.47;5051121;28;20052;-69
2023/08/19 11:11:16;;;;;;;0.00;0.00;;;;;;;32.74;34.62;97694.28;5046783;28;20045;-69
2023/08/19 11:13:44;;;;;;;0.00;0.00;;;;;;;32.66;34.51;97689.59;5050133;28;20059;-69
2023/08/19 11:16:11;;;;;;;0.00;0.00;;;;;;;33.02;34.17;97700.88;5048702;28;20436;-70
2023/08/19 11:18:40;;;;;;;0.00;0.00;;;;;;;33.17;33.08;97697.50;5048611;28;20049;-69
2023/08/19 11:21:08;;;;;;;0.00;0.00;;;;;;;33.35;31.86;97697.38;5048594;28;20055;-69
2023/08/19 11:23:37;;;;;;;0.00;0.00;;;;;;;33.38;32.49;97708.59;5049287;28;20139;-71
2023/08/19 11:26:04;;;;;;;0.00;0.00;;;;;;;33.34;32.36;97701.28;5050217;28;20116;-70
2023/08/19 11:28:32;;;;;;;0.00;0.00;;;;;;;33.26;32.42;97700.22;5049322;28;20041;-69
2023/08/19 11:31:00;;;;;;;0.00;0.00;;;;;;;33.07;32.24;97703.47;5047014;28;20044;-69
2023/08/19 11:33:31;;;;;;;0.00;0.00;;;;;;;33.50;32.63;97689.25;5049451;28;20064;-70
2023/08/19 11:35:59;;;;;;;0.00;0.00;;;;;;;33.34;33.00;97693.78;5048051;28;20101;-69
2023/08/19 11:38:27;;;;;;;0.00;0.00;;;;;;;33.24;31.49;97685.91;5045383;28;20106;-69
2023/08/19 11:40:56;;;;;;;0.00;0.00;;;;;;;33.36;31.62;97688.72;5047643;28;20120;-69